Time;durP1;ratioP1;P1;durP2;ratioP2;P2;SDS_P1;SDS_P2;PMS_P1;PMS_P2;Temp;Humidity;BMP_temperature;BMP_pressure;BME280_temperature;BME280_humidity;BME280_pressure;Samples;Min_cycle;Max_cycle;Signal;HPM_P1;HPM_P2
2022/07/04 00:01:19;;;;;;;6.78;2.90;;;;;;;20.27;73.42;96335.69;4907361;29;20072;-81
2022/07/04 00:03:46;;;;;;;4.57;2.58;;;;;;;20.31;72.04;96353.13;4907171;29;20056;-81
2022/07/04 00:06:17;;;;;;;2.83;2.30;;;;;;;20.32;70.97;96349.19;4907256;29;20056;-82
2022/07/04 00:08:44;;;;;;;5.72;2.70;;;;;;;20.37;71.10;96368.19;4907580;29;20052;-82
2022/07/04 00:11:13;;;;;;;4.05;2.40;;;;;;;20.37;69.94;96368.19;4907038;29;20049;-81
2022/07/04 00:13:39;;;;;;;4.22;2.60;;;;;;;20.38;69.53;96369.78;4907388;29;20127;-81
2022/07/04 00:16:13;;;;;;;5.88;2.80;;;;;;;20.44;69.60;96386.81;4907270;29;20045;-82
2022/07/04 00:18:40;;;;;;;2.88;2.53;;;;;;;20.41;69.14;96388.38;4907859;29;20052;-81
2022/07/04 00:21:08;;;;;;;3.50;2.53;;;;;;;20.29;68.70;96394.16;4897592;29;20052;-82
2022/07/04 00:23:35;;;;;;;6.53;2.90;;;;;;;20.44;69.28;96390.38;4891080;29;20055;-80
2022/07/04 00:26:01;;;;;;;3.90;2.47;;;;;;;20.47;69.42;96389.66;4904717;29;20052;-76
2022/07/04 00:28:28;;;;;;;3.28;2.50;;;;;;;20.52;69.71;96391.28;4893606;29;20128;-82
2022/07/04 00:30:58;;;;;;;4.72;2.60;;;;;;;20.43;70.32;96372.19;4888187;29;20250;-81
2022/07/04 00:33:25;;;;;;;4.63;2.80;;;;;;;20.42;70.72;96365.06;4886888;29;20045;-82
2022/07/04 00:35:54;;;;;;;5.15;2.70;;;;;;;20.46;69.87;96381.69;4886363;29;20057;-82
2022/07/04 00:38:22;;;;;;;6.70;3.17;;;;;;;20.53;68.80;96382.59;4877372;29;20525;-82
2022/07/04 00:40:48;;;;;;;5.10;2.60;;;;;;;20.48;68.84;96384.91;4884910;29;20497;-81
2022/07/04 00:43:22;;;;;;;4.28;2.60;;;;;;;20.46;69.11;96395.50;4885976;29;20190;-82
2022/07/04 00:45:48;;;;;;;3.92;2.70;;;;;;;20.41;69.65;96404.97;4889336;29;20049;-80
2022/07/04 00:48:18;;;;;;;4.90;2.95;;;;;;;20.33;69.28;96412.38;4889772;29;20052;-81
2022/07/04 00:50:45;;;;;;;5.43;2.50;;;;;;;20.41;69.05;96417.97;4890490;29;20045;-82
2022/07/04 00:53:12;;;;;;;7.00;3.00;;;;;;;20.38;68.35;96411.25;4887173;29;20060;-80
2022/07/04 00:55:41;;;;;;;4.95;2.58;;;;;;;20.34;67.54;96411.22;4890476;29;20065;-81
2022/07/04 00:58:09;;;;;;;3.97;2.42;;;;;;;20.45;67.01;96419.59;4890216;29;20052;-81
2022/07/04 01:00:36;;;;;;;5.07;2.47;;;;;;;20.40;67.07;96410.88;4874308;29;20049;-82
2022/07/04 01:03:02;;;;;;;3.55;2.10;;;;;;;20.48;66.07;96413.34;4867693;29;20053;-80
2022/07/04 01:05:31;;;;;;;4.03;2.35;;;;;;;20.23;66.65;96410.31;4889445;29;20045;-81
2022/07/04 01:08:00;;;;;;;4.82;2.30;;;;;;;20.23;67.87;96412.28;4891149;29;20053;-82
2022/07/04 01:10:29;;;;;;;4.10;2.20;;;;;;;20.34;67.02;96419.50;4889620;29;20112;-80
2022/07/04 01:13:04;;;;;;;4.40;2.38;;;;;;;20.24;67.46;96416.63;4889060;29;20053;-82
2022/07/04 01:15:31;;;;;;;5.28;2.50;;;;;;;20.09;68.92;96407.38;4890009;29;20128;-81
2022/07/04 01:17:57;;;;;;;6.13;2.50;;;;;;;20.06;69.90;96408.94;4891754;29;20458;-82
2022/07/04 01:20:26;;;;;;;10.27;2.33;;;;;;;20.09;69.06;96407.38;4891536;29;20048;-81
2022/07/04 01:22:52;;;;;;;8.73;2.38;;;;;;;20.03;69.36;96409.69;4890469;29;20053;-80
2022/07/04 01:25:19;;;;;;;5.38;2.22;;;;;;;19.92;69.72;96392.19;4882288;29;20131;-83
2022/07/04 01:27:46;;;;;;;3.13;2.10;;;;;;;19.86;69.76;96377.13;4891378;29;20082;-82
2022/07/04 01:30:13;;;;;;;4.90;2.20;;;;;;;19.99;69.53;96348.06;4894739;29;20057;-82
2022/07/04 01:32:40;;;;;;;4.68;2.47;;;;;;;20.13;70.15;96372.28;4893647;29;20049;-83
2022/07/04 01:35:08;;;;;;;6.43;2.42;;;;;;;20.08;71.12;96390.00;4894074;29;20057;-81
2022/07/04 01:37:36;;;;;;;3.17;2.00;;;;;;;19.98;67.88;96401.75;4876825;29;20060;-82
2022/07/04 01:40:02;;;;;;;2.53;1.65;;;;;;;20.15;66.53;96396.78;4892603;29;20053;-81
2022/07/04 01:42:29;;;;;;;2.38;1.70;;;;;;;20.08;65.16;96390.00;4876209;29;20053;-81
2022/07/04 01:44:55;;;;;;;2.50;1.50;;;;;;;20.19;65.68;96405.91;4893553;29;20049;-83
2022/07/04 01:47:22;;;;;;;2.25;1.67;;;;;;;20.17;63.72;96402.75;4892450;29;20052;-81
2022/07/04 01:49:54;;;;;;;3.38;1.60;;;;;;;20.31;62.88;96405.66;4873953;29;20049;-82
2022/07/04 01:52:22;;;;;;;2.88;1.60;;;;;;;20.42;62.44;96398.25;4891568;29;20049;-81
2022/07/04 01:54:50;;;;;;;1.98;1.58;;;;;;;20.34;63.09;96402.13;4890132;29;20052;-82
2022/07/04 01:57:21;;;;;;;2.25;1.63;;;;;;;20.31;63.23;96397.38;4892024;29;20060;-81
2022/07/04 02:02:33;;;;;;;2.55;1.38;;;;;;;20.51;62.75;96395.19;4892690;29;20081;-81
2022/07/04 02:05:00;;;;;;;2.78;1.65;;;;;;;20.32;62.89;96382.34;4892653;29;20048;-84
2022/07/04 02:07:27;;;;;;;3.17;1.70;;;;;;;20.19;63.25;96394.84;4864680;29;20097;-81
2022/07/04 02:09:56;;;;;;;5.28;1.90;;;;;;;20.03;63.79;96395.88;4890488;29;20583;-81
2022/07/04 02:15:11;;;;;;;4.95;2.20;;;;;;;19.86;64.43;96399.25;4891663;29;20100;-81
2022/07/04 02:17:37;;;;;;;3.25;1.83;;;;;;;20.06;64.68;96400.66;4894232;29;20067;-83
2022/07/04 02:20:06;;;;;;;2.80;1.73;;;;;;;20.00;64.65;96398.63;4878802;29;20052;-81
2022/07/04 02:22:32;;;;;;;3.35;1.83;;;;;;;20.07;64.81;96398.69;4879711;29;20077;-82
2022/07/04 02:25:00;;;;;;;3.80;1.70;;;;;;;20.13;64.81;96396.38;4896722;29;20049;-82
2022/07/04 02:27:27;;;;;;;2.75;1.75;;;;;;;20.15;64.93;96394.00;4896107;29;20074;-85
2022/07/04 02:29:53;;;;;;;4.40;1.70;;;;;;;20.19;64.62;96400.38;4870533;29;20040;-82
2022/07/04 02:32:19;;;;;;;2.58;1.70;;;;;;;20.29;64.83;96402.47;4897025;29;20049;-84
2022/07/04 02:34:46;;;;;;;3.17;1.63;;;;;;;20.13;65.17;96397.16;4896588;29;20052;-85
2022/07/04 02:37:15;;;;;;;2.03;1.58;;;;;;;20.29;65.04;96402.47;4880609;29;20057;-82
2022/07/04 02:39:41;;;;;;;2.17;1.52;;;;;;;20.36;65.59;96410.84;4895339;29;20049;-82
2022/07/04 02:42:09;;;;;;;2.22;1.60;;;;;;;20.39;65.88;96406.50;4886925;29;20045;-83
2022/07/04 02:44:36;;;;;;;2.58;1.98;;;;;;;20.32;65.50;96407.25;4895076;29;20077;-82
2022/07/04 02:47:03;;;;;;;2.97;1.90;;;;;;;20.26;65.49;96411.53;4911609;29;20049;-83
2022/07/04 02:49:30;;;;;;;2.97;1.70;;;;;;;20.32;65.77;96412.78;4915397;29;20072;-83
2022/07/04 02:51:56;;;;;;;4.30;2.15;;;;;;;20.39;66.01;96409.28;4915968;29;20093;-82
2022/07/04 02:54:23;;;;;;;2.45;1.60;;;;;;;20.47;65.67;96414.53;4915433;29;20044;-85
2022/07/04 02:56:49;;;;;;;3.45;1.98;;;;;;;20.47;66.53;96410.97;4916949;29;20052;-82
2022/07/04 02:59:17;;;;;;;2.65;1.80;;;;;;;20.51;66.40;96411.78;4915674;29;20052;-83
2022/07/04 03:01:43;;;;;;;1.98;1.70;;;;;;;20.55;67.33;96416.19;4915789;29;20628;-82
2022/07/04 03:04:10;;;;;;;2.60;1.70;;;;;;;20.53;67.01;96421.31;4899015;29;20056;-84
2022/07/04 03:06:36;;;;;;;3.50;1.80;;;;;;;20.48;66.54;96423.63;4915800;29;20044;-83
2022/07/04 03:09:03;;;;;;;3.72;2.20;;;;;;;20.50;66.66;96424.03;4937689;23;20041;-79
2022/07/04 03:11:30;;;;;;;3.05;1.90;;;;;;;20.37;67.22;96423.50;4883895;29;20055;-82
2022/07/04 03:13:57;;;;;;;4.35;2.05;;;;;;;20.39;67.36;96426.66;4915237;29;20052;-83
2022/07/04 03:16:25;;;;;;;2.80;1.90;;;;;;;20.38;67.17;96436.13;4914384;29;20045;-83
2022/07/04 03:18:52;;;;;;;3.15;1.88;;;;;;;20.48;66.85;96437.47;4915271;29;20049;-82
2022/07/04 03:21:19;;;;;;;2.70;2.05;;;;;;;20.51;67.28;96437.47;4897307;29;20112;-86
2022/07/04 03:23:57;;;;;;;2.83;2.00;;;;;;;20.55;68.03;96434.75;4915016;29;20060;-83
2022/07/04 03:26:24;;;;;;;3.30;2.22;;;;;;;20.53;68.03;96443.44;4914694;29;20114;-84
2022/07/04 03:28:51;;;;;;;3.83;2.00;;;;;;;20.49;67.40;96441.81;4915321;29;20059;-83
2022/07/04 03:31:19;;;;;;;2.50;1.80;;;;;;;20.48;67.28;96449.31;4913139;29;20044;-82
2022/07/04 03:33:50;;;;;;;2.67;1.90;;;;;;;20.20;67.31;96447.03;4899775;29;20044;-83
2022/07/04 03:36:22;;;;;;;2.97;2.03;;;;;;;20.29;67.32;96443.94;4914270;29;20074;-82
2022/07/04 03:38:57;;;;;;;5.32;2.25;;;;;;;20.27;67.69;96440.78;4914843;29;20069;-83
2022/07/04 03:41:24;;;;;;;4.32;2.30;;;;;;;20.26;67.54;96444.72;4913480;29;20103;-83
2022/07/04 03:43:50;;;;;;;3.30;2.35;;;;;;;20.32;68.06;96443.19;4923668;23;20127;-83
2022/07/04 03:46:17;;;;;;;2.53;1.90;;;;;;;20.32;68.15;96445.97;4894342;29;20056;-83
2022/07/04 03:48:44;;;;;;;3.20;1.92;;;;;;;20.32;68.25;96451.50;4895298;29;20044;-84
2022/07/04 03:51:13;;;;;;;3.17;2.20;;;;;;;20.34;67.96;96452.69;4894365;29;20057;-83
2022/07/04 03:53:40;;;;;;;4.93;2.10;;;;;;;20.40;68.12;96452.34;4895136;29;20049;-83
2022/07/04 03:56:08;;;;;;;4.55;2.13;;;;;;;20.31;67.72;96452.66;4895067;29;20053;-81
2022/07/04 03:58:34;;;;;;;6.45;2.33;;;;;;;20.37;68.03;96466.94;4895784;29;20061;-83
2022/07/04 04:01:01;;;;;;;4.55;2.30;;;;;;;20.33;68.21;96467.69;4894936;29;20056;-82
2022/07/04 04:06:13;;;;;;;4.15;2.05;;;;;;;20.31;67.86;96459.00;4894456;29;20082;-83
2022/07/04 04:08:40;;;;;;;3.38;2.20;;;;;;;20.38;67.71;96460.25;4894786;29;20041;-83
2022/07/04 04:11:07;;;;;;;3.53;2.45;;;;;;;20.39;67.96;96459.06;4876309;29;20049;-81
2022/07/04 04:13:34;;;;;;;3.95;2.17;;;;;;;20.40;69.17;96453.13;4887311;29;20048;-83
2022/07/04 04:16:01;;;;;;;3.60;2.10;;;;;;;20.40;68.39;96455.91;4893996;29;20053;-84
2022/07/04 04:18:28;;;;;;;4.80;2.60;;;;;;;20.33;68.72;96456.63;4893715;29;20071;-82
2022/07/04 04:20:55;;;;;;;3.65;2.38;;;;;;;20.39;68.82;96472.88;4893972;29;20053;-82
2022/07/04 04:23:23;;;;;;;3.78;2.30;;;;;;;20.41;69.48;96476.06;4893096;29;20084;-83
2022/07/04 04:25:50;;;;;;;3.42;2.10;;;;;;;20.23;68.58;96489.69;4894415;29;20053;-82
2022/07/04 04:28:17;;;;;;;4.68;2.00;;;;;;;20.29;69.40;96504.78;4894954;29;20048;-82
2022/07/04 04:30:44;;;;;;;4.50;2.38;;;;;;;20.15;68.78;96504.59;4897610;29;20045;-82
2022/07/04 04:33:11;;;;;;;4.60;2.17;;;;;;;20.01;69.10;96513.53;4908712;29;20111;-82
2022/07/04 04:35:38;;;;;;;2.92;2.13;;;;;;;20.12;69.20;96510.91;4915683;29;20918;-82
2022/07/04 04:38:06;;;;;;;6.45;2.65;;;;;;;20.16;68.93;96508.97;4916263;29;20043;-83
2022/07/04 04:40:34;;;;;;;2.80;1.90;;;;;;;20.24;69.29;96507.88;4913734;29;20488;-82
2022/07/04 04:43:01;;;;;;;4.40;2.03;;;;;;;20.25;69.98;96515.78;4915552;29;20499;-83
2022/07/04 04:45:29;;;;;;;4.15;1.80;;;;;;;20.32;71.09;96507.59;4881828;29;20125;-83
2022/07/04 04:47:55;;;;;;;2.67;2.10;;;;;;;20.29;71.67;96515.84;4879062;29;20049;-82
2022/07/04 04:50:22;;;;;;;4.93;2.33;;;;;;;20.32;72.71;96526.16;4875735;29;20075;-83
2022/07/04 04:52:49;;;;;;;3.58;2.13;;;;;;;20.25;72.72;96529.59;4875686;29;20056;-81
2022/07/04 04:55:16;;;;;;;4.85;2.70;;;;;;;20.07;72.88;96532.16;4874275;29;20064;-82
2022/07/04 04:57:44;;;;;;;3.20;2.08;;;;;;;20.19;73.18;96522.03;4877029;29;20050;-82
2022/07/04 05:00:13;;;;;;;2.90;2.40;;;;;;;20.22;74.16;96518.53;4877026;29;20091;-84
2022/07/04 05:02:40;;;;;;;3.15;2.20;;;;;;;20.19;74.35;96514.53;4850563;29;20045;-82
2022/07/04 05:05:07;;;;;;;3.03;2.22;;;;;;;20.21;75.22;96523.25;4860542;29;20498;-81
2022/07/04 05:07:34;;;;;;;2.90;2.45;;;;;;;20.16;75.23;96520.03;4861299;29;20053;-83
2022/07/04 05:10:01;;;;;;;3.95;2.58;;;;;;;20.10;75.88;96524.28;4878701;29;20061;-82
2022/07/04 05:12:28;;;;;;;4.53;2.42;;;;;;;20.14;77.04;96525.13;4841849;29;20050;-83
2022/07/04 05:14:56;;;;;;;2.80;2.42;;;;;;;20.10;76.85;96529.81;4874071;29;20041;-83
2022/07/04 05:17:23;;;;;;;3.53;2.33;;;;;;;20.10;77.12;96524.28;4876744;29;20057;-85
2022/07/04 05:19:50;;;;;;;4.40;2.70;;;;;;;20.07;78.25;96523.88;4878019;29;20053;-84
2022/07/04 05:22:17;;;;;;;4.50;2.60;;;;;;;20.07;77.29;96520.31;4864565;29;20086;-81
2022/07/04 05:24:45;;;;;;;4.22;2.60;;;;;;;20.06;75.91;96519.53;4885541;29;20077;-82
2022/07/04 05:27:11;;;;;;;2.80;2.35;;;;;;;20.07;76.79;96518.34;4890232;29;20076;-80
2022/07/04 05:29:38;;;;;;;4.57;2.92;;;;;;;19.93;76.82;96525.66;4882303;29;20045;-81
2022/07/04 05:32:07;;;;;;;2.92;2.53;;;;;;;19.72;77.67;96526.16;4878384;29;20068;-79
2022/07/04 05:34:33;;;;;;;3.90;2.80;;;;;;;19.76;79.13;96527.00;4874988;29;20057;-78
2022/07/04 05:37:00;;;;;;;4.88;2.70;;;;;;;19.93;79.17;96536.72;4874488;29;20053;-78
2022/07/04 05:39:26;;;;;;;3.97;2.83;;;;;;;19.74;79.39;96537.66;4874216;29;20814;-78
2022/07/04 05:41:53;;;;;;;3.42;2.80;;;;;;;19.76;79.84;96541.63;4874629;29;20053;-79
2022/07/04 05:44:19;;;;;;;3.03;2.55;;;;;;;19.92;80.21;96546.16;4875487;29;20767;-79
2022/07/04 05:46:45;;;;;;;4.95;3.17;;;;;;;19.83;81.40;96549.19;4876411;29;20537;-79
2022/07/04 05:49:13;;;;;;;5.47;3.00;;;;;;;19.89;81.85;96547.72;4882295;29;20053;-82
2022/07/04 05:51:40;;;;;;;7.43;3.22;;;;;;;20.04;81.79;96555.03;4879898;29;20087;-78
2022/07/04 05:54:06;;;;;;;6.45;2.95;;;;;;;20.11;80.30;96561.84;4875048;29;20041;-84
2022/07/04 05:56:33;;;;;;;5.07;2.85;;;;;;;20.10;80.33;96558.28;4898264;29;20428;-84
2022/07/04 05:59:00;;;;;;;7.63;2.78;;;;;;;20.18;79.97;96553.63;4879180;29;20053;-82
2022/07/04 06:01:26;;;;;;;4.35;2.60;;;;;;;20.21;80.63;96553.69;4896320;29;20052;-85
2022/07/04 06:03:53;;;;;;;5.93;2.63;;;;;;;20.30;79.38;96553.38;4890850;29;20124;-79
2022/07/04 06:06:20;;;;;;;4.63;2.75;;;;;;;20.33;78.57;96547.09;4873930;29;20072;-80
2022/07/04 06:08:47;;;;;;;4.22;2.40;;;;;;;20.33;76.77;96549.88;4878475;29;20064;-82
2022/07/04 06:11:14;;;;;;;3.80;2.20;;;;;;;20.48;75.30;96557.19;4861448;29;20057;-79
2022/07/04 06:13:41;;;;;;;3.83;2.35;;;;;;;20.20;76.54;96551.28;4875363;29;20892;-79
2022/07/04 06:16:07;;;;;;;2.95;2.20;;;;;;;20.38;75.94;96557.84;4866950;29;20057;-81
2022/07/04 06:18:33;;;;;;;4.72;2.28;;;;;;;20.38;76.55;96560.59;4859787;29;20052;-82
2022/07/04 06:21:00;;;;;;;4.28;2.10;;;;;;;20.49;76.07;96561.53;4862303;29;20057;-83
2022/07/04 06:23:28;;;;;;;5.47;2.40;;;;;;;20.35;77.21;96566.88;4862860;29;20409;-81
2022/07/04 06:25:55;;;;;;;2.95;1.92;;;;;;;20.22;76.73;96571.06;4860832;29;20060;-80
2022/07/04 06:28:22;;;;;;;5.78;2.25;;;;;;;20.30;76.91;96572.72;4859452;29;20092;-80
2022/07/04 06:30:48;;;;;;;6.68;2.20;;;;;;;20.30;77.90;96586.56;4859434;29;20061;-80
2022/07/04 06:33:15;;;;;;;3.90;2.50;;;;;;;20.51;77.81;96591.59;4856378;29;20102;-80
2022/07/04 06:35:49;;;;;;;3.00;1.92;;;;;;;20.55;77.62;96590.47;4857078;29;20054;-81
2022/07/04 06:38:21;;;;;;;3.47;2.30;;;;;;;20.53;76.82;96587.28;4857687;29;20056;-80
2022/07/04 06:40:50;;;;;;;8.73;2.30;;;;;;;20.53;76.74;96581.75;4863673;29;20045;-79
2022/07/04 06:43:17;;;;;;;7.65;2.67;;;;;;;20.49;76.55;96583.69;4872841;29;20045;-79
2022/07/04 06:45:43;;;;;;;5.88;2.35;;;;;;;20.46;75.99;96581.66;4870956;29;20061;-79
2022/07/04 06:48:10;;;;;;;3.65;2.33;;;;;;;20.58;75.75;96584.19;4853962;29;20057;-80
2022/07/04 06:50:36;;;;;;;4.20;2.17;;;;;;;20.63;77.42;96579.50;4868498;29;20053;-81
2022/07/04 06:53:05;;;;;;;3.63;2.38;;;;;;;20.59;75.86;96580.25;4873599;29;20077;-79
2022/07/04 06:55:32;;;;;;;5.00;2.38;;;;;;;20.66;76.14;96573.97;4877311;29;20058;-80
2022/07/04 06:57:59;;;;;;;4.93;2.60;;;;;;;20.59;75.63;96562.84;4877707;29;20454;-80
2022/07/04 07:00:26;;;;;;;4.93;2.30;;;;;;;20.63;74.88;96558.16;4876974;29;20584;-79
2022/07/04 07:02:52;;;;;;;3.42;2.28;;;;;;;20.57;75.50;96570.75;4869585;29;20049;-81
2022/07/04 07:05:19;;;;;;;3.33;2.10;;;;;;;20.65;76.76;96571.59;4876598;29;20053;-80
2022/07/04 07:07:45;;;;;;;5.60;2.55;;;;;;;20.75;76.24;96568.94;4880370;29;20041;-80
2022/07/04 07:10:12;;;;;;;5.63;2.42;;;;;;;20.71;75.89;96583.91;4881046;29;20053;-80
2022/07/04 07:12:38;;;;;;;2.88;1.98;;;;;;;20.79;75.48;96588.38;4879285;29;20056;-80
2022/07/04 07:15:08;;;;;;;6.38;2.40;;;;;;;20.88;74.19;96579.75;4878018;29;20052;-79
2022/07/04 07:17:35;;;;;;;4.60;2.10;;;;;;;20.88;73.75;96585.28;4878959;29;20037;-80
2022/07/04 07:20:02;;;;;;;4.47;2.33;;;;;;;20.81;74.49;96592.34;4879103;29;20057;-79
2022/07/04 07:22:29;;;;;;;3.15;2.05;;;;;;;20.66;72.83;96595.31;4878224;29;20147;-80
2022/07/04 07:24:55;;;;;;;4.68;2.13;;;;;;;20.63;72.47;96590.56;4878456;29;20048;-80
2022/07/04 07:27:22;;;;;;;3.30;1.90;;;;;;;20.68;72.53;96587.47;4877731;29;20061;-79
2022/07/04 07:29:49;;;;;;;2.28;1.75;;;;;;;20.71;72.46;96597.75;4877801;29;20097;-79
2022/07/04 07:32:17;;;;;;;4.38;2.05;;;;;;;20.63;72.56;96585.81;4877549;29;20494;-79
2022/07/04 07:34:43;;;;;;;3.45;2.10;;;;;;;20.50;73.16;96593.56;4877577;29;20045;-79
2022/07/04 07:37:10;;;;;;;2.63;1.80;;;;;;;20.44;73.34;96588.72;4877241;29;20071;-78
2022/07/04 07:39:36;;;;;;;3.53;2.00;;;;;;;20.45;71.96;96585.56;4877545;29;20097;-79
2022/07/04 07:42:03;;;;;;;3.97;1.83;;;;;;;20.47;73.11;96594.34;4877223;29;20048;-79
2022/07/04 07:44:30;;;;;;;4.10;2.00;;;;;;;20.63;72.63;96593.34;4877077;29;20081;-80
2022/07/04 07:46:56;;;;;;;3.45;1.70;;;;;;;20.66;73.50;96595.31;4877528;29;20049;-79
2022/07/04 07:49:24;;;;;;;3.35;1.77;;;;;;;20.66;72.23;96592.56;4877738;29;20073;-81
2022/07/04 07:51:51;;;;;;;3.28;2.15;;;;;;;20.62;72.34;96594.47;4878783;29;20053;-79
2022/07/04 07:54:18;;;;;;;4.15;2.10;;;;;;;20.56;71.89;96592.06;4878370;29;20105;-80
2022/07/04 07:56:44;;;;;;;5.18;1.95;;;;;;;20.33;73.67;96591.34;4879751;29;20056;-80
2022/07/04 07:59:11;;;;;;;3.65;1.98;;;;;;;20.40;73.32;96590.63;4878729;29;20566;-80
2022/07/04 08:01:37;;;;;;;5.45;2.38;;;;;;;20.48;73.95;96579.31;4878374;29;20056;-79
2022/07/04 08:06:49;;;;;;;4.25;2.13;;;;;;;20.42;74.44;96569.75;4877674;29;20060;-80
2022/07/04 08:09:16;;;;;;;5.50;2.20;;;;;;;20.44;74.38;96564.63;4879156;29;20589;-80
2022/07/04 08:11:46;;;;;;;4.30;1.95;;;;;;;20.40;74.12;96558.25;4882347;29;20059;-82
2022/07/04 08:14:13;;;;;;;3.58;2.00;;;;;;;20.30;74.81;96553.38;4872401;29;20097;-82
2022/07/04 08:16:40;;;;;;;5.57;1.92;;;;;;;20.21;75.17;96553.69;4877930;29;20057;-80
2022/07/04 08:19:07;;;;;;;5.90;2.28;;;;;;;20.44;76.82;96566.59;4879051;29;20113;-79
2022/07/04 08:21:34;;;;;;;3.10;1.92;;;;;;;20.63;75.96;96557.38;4879183;29;20049;-79
2022/07/04 08:24:01;;;;;;;2.63;1.92;;;;;;;20.67;74.75;96558.97;4878733;29;20112;-83
2022/07/04 08:26:28;;;;;;;3.63;1.98;;;;;;;20.68;72.79;96559.78;4877188;29;20041;-78
2022/07/04 08:28:57;;;;;;;2.90;1.77;;;;;;;20.72;73.73;96549.53;4879151;29;20053;-78
2022/07/04 08:31:23;;;;;;;2.70;1.70;;;;;;;20.93;73.01;96549.75;4879226;29;20128;-79
2022/07/04 08:33:50;;;;;;;5.53;2.00;;;;;;;21.09;72.24;96542.03;4876176;29;20052;-78
2022/07/04 08:36:16;;;;;;;4.53;1.73;;;;;;;21.33;70.47;96535.13;4875645;29;20049;-76
2022/07/04 08:38:43;;;;;;;4.95;1.70;;;;;;;21.41;68.72;96537.97;4876172;29;20049;-80
2022/07/04 08:41:12;;;;;;;3.88;1.80;;;;;;;21.31;68.48;96522.84;4875942;29;20056;-78
2022/07/04 08:43:40;;;;;;;3.70;2.05;;;;;;;21.35;68.77;96526.41;4876180;29;20667;-80
2022/07/04 08:46:07;;;;;;;3.72;1.77;;;;;;;21.40;68.65;96528.81;4875527;29;20052;-77
2022/07/04 08:48:34;;;;;;;2.85;1.75;;;;;;;21.29;68.23;96544.53;4876107;29;20057;-80
2022/07/04 08:51:10;;;;;;;3.88;1.50;;;;;;;21.40;68.38;96534.38;4876390;29;20052;-78
2022/07/04 08:53:39;;;;;;;2.80;1.65;;;;;;;21.54;68.01;96551.09;4876611;29;20121;-78
2022/07/04 08:58:54;;;;;;;5.82;1.65;;;;;;;22.39;63.79;96555.56;4876431;29;20507;-75
2022/07/04 09:01:21;;;;;;;3.53;1.75;;;;;;;22.81;66.75;96549.41;4876011;29;20527;-79
2022/07/04 09:03:50;;;;;;;3.38;1.73;;;;;;;23.10;62.71;96541.91;4875907;29;20446;-78
2022/07/04 09:06:17;;;;;;;3.30;1.50;;;;;;;23.10;63.38;96539.13;4877298;29;20049;-80
2022/07/04 09:08:43;;;;;;;3.28;1.48;;;;;;;23.32;62.43;96544.72;4878251;29;20041;-81
2022/07/04 09:11:10;;;;;;;3.17;1.67;;;;;;;23.64;60.29;96542.72;4875657;29;20049;-81
2022/07/04 09:13:36;;;;;;;4.65;1.60;;;;;;;23.80;59.89;96541.53;4876093;29;20490;-80
2022/07/04 09:16:05;;;;;;;2.80;1.52;;;;;;;24.03;58.29;96549.44;4871489;29;20057;-77
2022/07/04 09:18:33;;;;;;;3.42;1.48;;;;;;;24.34;60.85;96547.75;4860654;29;20049;-76
2022/07/04 09:21:01;;;;;;;3.95;1.50;;;;;;;24.29;57.22;96550.94;4860621;29;20053;-75
2022/07/04 09:23:30;;;;;;;2.95;1.45;;;;;;;24.14;59.64;96539.84;4860700;29;20049;-75
2022/07/04 09:26:14;;;;;;;5.20;1.67;;;;;;;24.53;59.86;96544.50;4878984;29;20622;-74
2022/07/04 09:28:43;;;;;;;2.40;1.50;;;;;;;24.75;57.71;96538.84;4879011;29;20489;-76
2022/07/04 09:31:18;;;;;;;3.67;1.50;;;;;;;24.62;56.64;96546.84;4878400;29;20141;-75
2022/07/04 09:33:50;;;;;;;3.17;1.73;;;;;;;24.54;57.51;96556.44;4879079;29;20045;-75
2022/07/04 09:36:18;;;;;;;3.30;1.83;;;;;;;24.81;56.64;96549.16;4878836;29;20097;-75
2022/07/04 09:38:45;;;;;;;4.13;1.50;;;;;;;24.11;56.47;96551.78;4878484;29;20051;-75
2022/07/04 09:41:29;;;;;;;2.53;1.63;;;;;;;24.24;57.13;96548.59;4878249;29;20056;-75
2022/07/04 09:44:04;;;;;;;4.18;1.75;;;;;;;24.56;59.52;96543.69;4878285;29;20132;-74
2022/07/04 09:46:32;;;;;;;3.30;1.42;;;;;;;24.63;56.85;96545.66;4868985;29;20129;-76
2022/07/04 09:48:59;;;;;;;3.47;1.38;;;;;;;24.80;55.87;96547.56;4860230;29;20102;-75
2022/07/04 09:51:42;;;;;;;2.90;1.80;;;;;;;24.93;60.68;96545.88;4859815;29;20061;-74
2022/07/04 09:54:25;;;;;;;4.22;1.70;;;;;;;25.01;56.19;96543.06;4859774;29;20077;-76
2022/07/04 09:56:54;;;;;;;2.05;1.45;;;;;;;25.21;58.49;96539.38;4859954;29;20047;-74
2022/07/04 09:59:21;;;;;;;3.28;1.55;;;;;;;25.36;54.48;96544.81;4859341;29;20080;-75
2022/07/04 10:01:50;;;;;;;3.97;1.50;;;;;;;25.51;56.36;96546.28;4859867;29;20045;-75
2022/07/04 10:04:16;;;;;;;5.22;1.48;;;;;;;25.62;54.71;96546.97;4859120;29;20056;-75
2022/07/04 10:06:45;;;;;;;2.63;1.20;;;;;;;25.82;51.57;96538.06;4859830;29;20052;-74
2022/07/04 10:09:13;;;;;;;2.60;1.27;;;;;;;25.79;49.89;96528.56;4859214;29;20076;-74
2022/07/04 10:11:42;;;;;;;2.75;1.20;;;;;;;25.86;51.66;96534.06;4859732;29;20057;-75
2022/07/04 10:14:11;;;;;;;1.08;0.98;;;;;;;25.89;49.82;96533.19;4858965;29;20057;-75
2022/07/04 10:16:39;;;;;;;2.88;1.17;;;;;;;26.00;49.48;96547.06;4859861;29;20049;-75
2022/07/04 10:19:07;;;;;;;3.20;1.10;;;;;;;25.94;48.68;96541.13;4858968;29;20556;-75
2022/07/04 10:21:34;;;;;;;1.85;1.27;;;;;;;25.91;51.65;96538.38;4859561;29;20061;-75
2022/07/04 10:24:03;;;;;;;1.83;1.00;;;;;;;26.09;52.19;96536.19;4859554;29;20045;-74
2022/07/04 10:26:30;;;;;;;3.42;1.13;;;;;;;26.02;47.88;96544.66;4858858;29;20544;-75
2022/07/04 10:28:57;;;;;;;1.75;1.17;;;;;;;25.91;49.34;96535.59;4859424;29;20561;-75
2022/07/04 10:31:26;;;;;;;2.25;1.10;;;;;;;26.06;48.75;96528.66;4858710;29;20049;-75
2022/07/04 10:33:54;;;;;;;4.68;1.23;;;;;;;25.65;46.73;96537.81;4859089;29;20049;-75
2022/07/04 10:36:23;;;;;;;2.45;1.10;;;;;;;25.84;48.75;96535.66;4858470;29;20462;-74
2022/07/04 10:38:52;;;;;;;2.95;1.00;;;;;;;26.04;51.85;96533.84;4859109;29;20132;-74
2022/07/04 10:41:21;;;;;;;1.75;0.95;;;;;;;25.93;47.91;96533.19;4858456;29;20056;-75
2022/07/04 10:44:00;;;;;;;1.45;0.93;;;;;;;26.15;46.90;96523.34;4858977;29;20057;-76
2022/07/04 10:46:32;;;;;;;2.85;1.17;;;;;;;25.72;45.31;96529.34;4858830;29;20052;-75
2022/07/04 10:49:00;;;;;;;1.50;0.90;;;;;;;25.40;49.32;96531.66;4858938;29;20060;-76
2022/07/04 10:51:41;;;;;;;1.40;0.88;;;;;;;25.68;50.61;96530.59;4858578;29;20410;-76
2022/07/04 10:54:10;;;;;;;3.75;1.20;;;;;;;25.81;49.25;96519.75;4858345;29;20049;-76
2022/07/04 10:56:43;;;;;;;1.95;0.88;;;;;;;25.98;47.76;96527.16;4858774;29;20060;-76
2022/07/04 10:59:11;;;;;;;1.10;0.95;;;;;;;26.07;51.41;96516.28;4857999;29;20057;-75
2022/07/04 11:01:38;;;;;;;2.55;1.00;;;;;;;25.81;49.01;96519.75;4858545;29;20045;-75
2022/07/04 11:04:05;;;;;;;2.42;1.05;;;;;;;25.88;48.65;96522.47;4858424;29;20054;-74
2022/07/04 11:06:54;;;;;;;2.80;1.00;;;;;;;25.61;48.65;96511.94;4858525;29;20502;-75
2022/07/04 11:09:21;;;;;;;3.00;1.17;;;;;;;25.59;48.16;96514.38;4858293;29;20075;-74
2022/07/04 11:11:49;;;;;;;2.33;1.05;;;;;;;25.34;47.72;96513.78;4858610;29;20053;-75
2022/07/04 11:14:42;;;;;;;3.78;1.10;;;;;;;25.09;48.84;96502.81;4858048;29;20057;-74
2022/07/04 11:17:10;;;;;;;2.20;1.10;;;;;;;25.25;52.02;96512.25;4858188;29;20125;-75
2022/07/04 11:19:37;;;;;;;1.52;1.27;;;;;;;25.21;50.54;96517.09;4858421;29;20836;-75
2022/07/04 11:22:06;;;;;;;2.40;1.10;;;;;;;25.15;49.84;96513.13;4857888;29;20110;-77
2022/07/04 11:24:34;;;;;;;2.38;1.02;;;;;;;25.13;50.02;96509.97;4858233;29;20056;-74
2022/07/04 11:27:01;;;;;;;2.10;1.20;;;;;;;25.15;49.87;96513.13;4858373;29;20056;-75
2022/07/04 11:29:29;;;;;;;3.15;1.30;;;;;;;24.95;49.24;96514.81;4858039;29;20046;-74
2022/07/04 11:31:56;;;;;;;2.45;1.30;;;;;;;25.19;49.84;96513.88;4858176;29;20037;-74
2022/07/04 11:34:23;;;;;;;5.47;1.27;;;;;;;25.10;48.42;96507.97;4857678;29;20057;-74
2022/07/04 11:36:51;;;;;;;2.45;1.00;;;;;;;25.14;53.62;96505.97;4857877;29;20048;-75
2022/07/04 11:39:21;;;;;;;3.60;1.30;;;;;;;25.21;49.10;96499.53;4857142;29;20057;-77
2022/07/04 11:47:23;;;;;;;2.08;1.15;;;;;;;25.32;51.26;96494.69;4857707;29;20064;-75
2022/07/04 11:49:51;;;;;;;3.13;1.25;;;;;;;25.38;49.39;96498.63;4857850;29;20053;-76
2022/07/04 11:52:24;;;;;;;2.28;1.42;;;;;;;25.40;50.20;96493.41;4857578;29;20084;-76
2022/07/04 11:54:53;;;;;;;2.15;1.00;;;;;;;25.40;50.94;96493.41;4857888;29;20045;-74
2022/07/04 11:57:23;;;;;;;1.75;1.10;;;;;;;25.43;49.74;96492.59;4857431;29;20050;-75